Time,TemperatureF,DewpointF,PressureIn,WindDirection,WindDirectionDegrees,WindSpeedMPH,WindSpeedGustMPH,Humidity,HourlyPrecipIn,Conditions,Clouds,dailyrainin,SoftwareType,DateUTC
2013-04-15 00:06:00,60.5,56.6,29.66,SE,146,0.0,1.0,87,0.00,,,0.00,Wunderground v.1.15,2013-04-15 05:06:00,
2013-04-15 00:16:00,59.6,56.0,29.66,SE,146,0.0,0.0,88,0.00,,,0.00,Wunderground v.1.15,2013-04-15 05:16:00,
2013-04-15 00:31:00,58.7,55.5,29.66,SE,146,0.0,0.0,89,0.00,,,0.00,Wunderground v.1.15,2013-04-15 05:31:00,
2013-04-15 00:40:00,58.0,54.8,29.66,SE,146,0.0,1.0,89,0.00,,,0.00,Wunderground v.1.15,2013-04-15 05:40:00,
2013-04-15 00:46:00,58.1,55.5,29.66,SE,146,0.0,0.0,91,0.00,,,0.00,Wunderground v.1.15,2013-04-15 05:46:00,
2013-04-15 00:56:00,58.9,56.6,29.66,South,180,1.0,1.0,92,0.00,,,0.00,Wunderground v.1.15,2013-04-15 05:56:00,
2013-04-15 01:05:00,59.6,57.0,29.67,SE,127,2.0,7.0,91,0.00,,,0.00,Wunderground v.1.15,2013-04-15 06:05:00,
2013-04-15 01:11:00,60.1,57.2,29.67,SSW,192,3.0,3.0,90,0.00,,,0.00,Wunderground v.1.15,2013-04-15 06:11:00,
2013-04-15 01:21:00,60.2,56.6,29.66,SSE,165,3.0,6.0,88,0.00,,,0.00,Wunderground v.1.15,2013-04-15 06:21:00,
2013-04-15 01:30:00,60.4,56.5,29.66,SSE,158,3.0,6.0,87,0.00,,,0.00,Wunderground v.1.15,2013-04-15 06:30:00,
2013-04-15 01:36:00,60.5,56.6,29.66,SSE,160,3.0,3.0,87,0.00,,,0.00,Wunderground v.1.15,2013-04-15 06:36:00,
2013-04-15 01:45:00,60.5,56.6,29.67,SE,140,2.0,4.0,87,0.00,,,0.00,Wunderground v.1.15,2013-04-15 06:45:00,
2013-04-15 01:51:00,60.5,56.6,29.67,SE,139,1.0,4.0,87,0.00,,,0.00,Wunderground v.1.15,2013-04-15 06:51:00,
2013-04-15 02:01:00,60.5,56.9,29.67,SE,139,0.0,0.0,88,0.00,,,0.00,Wunderground v.1.15,2013-04-15 07:01:00,
2013-04-15 02:41:00,58.9,56.0,29.67,SE,139,0.0,0.0,90,0.00,,,0.00,Wunderground v.1.15,2013-04-15 07:41:00,
2013-04-15 02:50:00,58.9,56.3,29.67,SE,139,0.0,0.0,91,0.00,,,0.00,Wunderground v.1.15,2013-04-15 07:50:00,
2013-04-15 02:56:00,58.9,56.3,29.67,SE,139,0.0,0.0,91,0.00,,,0.00,Wunderground v.1.15,2013-04-15 07:56:00,
2013-04-15 03:05:00,59.2,56.9,29.67,SE,139,0.0,0.0,92,0.00,,,0.00,Wunderground v.1.15,2013-04-15 08:05:00,
2013-04-15 03:11:00,59.3,57.0,29.67,SE,139,0.0,0.0,92,0.00,,,0.00,Wunderground v.1.15,2013-04-15 08:11:00,
2013-04-15 03:21:00,59.6,57.3,29.68,SE,139,1.0,1.0,92,0.00,,,0.00,Wunderground v.1.15,2013-04-15 08:21:00,
2013-04-15 03:30:00,59.9,57.3,29.69,SE,144,2.0,2.0,91,0.00,,,0.00,Wunderground v.1.15,2013-04-15 08:30:00,
2013-04-15 03:36:00,60.1,57.5,29.69,SE,138,2.0,2.0,91,0.00,,,0.00,Wunderground v.1.15,2013-04-15 08:36:00,
2013-04-15 03:40:00,60.2,57.3,29.69,SSE,151,2.0,3.0,90,0.00,,,0.00,Wunderground v.1.15,2013-04-15 08:40:00,
2013-04-15 03:46:00,60.2,57.3,29.68,SSE,154,2.0,4.0,90,0.00,,,0.00,Wunderground v.1.15,2013-04-15 08:46:00,
2013-04-15 03:56:00,60.2,56.9,29.68,SE,135,1.0,1.0,89,0.00,,,0.00,Wunderground v.1.15,2013-04-15 08:56:00,
2013-04-15 04:00:00,60.1,56.8,29.69,NW,319,1.0,2.0,89,0.00,,,0.00,Wunderground v.1.15,2013-04-15 09:00:00,
2013-04-15 04:06:00,59.9,56.6,29.69,NW,319,2.0,3.0,89,0.00,,,0.00,Wunderground v.1.15,2013-04-15 09:06:00,
2013-04-15 04:16:00,59.9,57.0,29.70,NW,319,0.0,3.0,90,0.00,,,0.00,Wunderground v.1.15,2013-04-15 09:16:00,
2013-04-15 04:25:00,59.8,56.9,29.70,NW,319,1.0,2.0,90,0.00,,,0.00,Wunderground v.1.15,2013-04-15 09:25:00,
2013-04-15 04:31:00,59.8,57.2,29.72,NW,320,2.0,2.0,91,0.00,,,0.00,Wunderground v.1.15,2013-04-15 09:31:00,
2013-04-15 04:35:00,59.8,57.2,29.72,NW,320,1.0,2.0,91,0.00,,,0.00,Wunderground v.1.15,2013-04-15 09:35:00,
2013-04-15 04:41:00,59.6,57.0,29.72,NW,320,0.0,0.0,91,0.00,,,0.00,Wunderground v.1.15,2013-04-15 09:41:00,
2013-04-15 04:51:00,59.6,57.0,29.72,NW,320,0.0,0.0,91,0.00,,,0.00,Wunderground v.1.15,2013-04-15 09:51:00,
2013-04-15 05:01:00,59.6,57.3,29.72,NW,320,0.0,0.0,92,0.00,,,0.00,Wunderground v.1.15,2013-04-15 10:01:00,
2013-04-15 05:10:00,59.5,57.2,29.72,NW,320,0.0,3.0,92,0.00,,,0.00,Wunderground v.1.15,2013-04-15 10:10:00,
2013-04-15 05:16:00,59.5,57.2,29.72,NE,36,1.0,5.0,92,0.00,,,0.00,Wunderground v.1.15,2013-04-15 10:16:00,
2013-04-15 05:25:00,56.6,50.2,29.72,North,5,5.0,5.0,79,0.00,,,0.00,Wunderground v.1.15,2013-04-15 10:25:00,
2013-04-15 05:31:00,56.2,48.4,29.74,NNE,24,5.0,8.0,75,0.00,,,0.00,Wunderground v.1.15,2013-04-15 10:31:00,
2013-04-15 05:41:00,55.6,47.4,29.74,NE,54,5.0,10.0,74,0.00,,,0.00,Wunderground v.1.15,2013-04-15 10:41:00,
2013-04-15 05:50:00,55.4,47.2,29.73,NNE,28,5.0,6.0,74,0.00,,,0.00,Wunderground v.1.15,2013-04-15 10:50:00,
2013-04-15 05:56:00,55.4,47.6,29.73,NE,34,5.0,8.0,75,0.00,,,0.00,Wunderground v.1.15,2013-04-15 10:56:00,
2013-04-15 06:06:00,55.1,47.3,29.73,NE,38,7.0,11.0,75,0.00,,,0.00,Wunderground v.1.15,2013-04-15 11:06:00,
2013-04-15 06:16:00,54.8,47.7,29.74,NNE,29,4.0,6.0,77,0.00,,,0.00,Wunderground v.1.15,2013-04-15 11:16:00,
2013-04-15 06:25:00,54.5,47.1,29.74,NNE,30,5.0,5.0,76,0.00,,,0.00,Wunderground v.1.15,2013-04-15 11:25:00,
2013-04-15 06:31:00,54.4,47.0,29.75,NE,35,6.0,6.0,76,0.00,,,0.00,Wunderground v.1.15,2013-04-15 11:31:00,
2013-04-15 06:41:00,54.2,46.8,29.75,NNE,31,4.0,4.0,76,0.00,,,0.00,Wunderground v.1.15,2013-04-15 11:41:00,
2013-04-15 06:56:00,54.4,47.0,29.75,NE,38,4.0,4.0,76,0.00,,,0.00,Wunderground v.1.15,2013-04-15 11:56:00,
2013-04-15 07:11:00,54.5,47.1,29.76,NNE,32,4.0,4.0,76,0.00,,,0.00,Wunderground v.1.15,2013-04-15 12:11:00,
2013-04-15 07:21:00,54.5,47.1,29.77,NE,41,3.0,3.0,76,0.00,,,0.00,Wunderground v.1.15,2013-04-15 12:21:00,
2013-04-15 07:30:00,54.5,47.4,29.77,NE,42,4.0,4.0,77,0.00,,,0.00,Wunderground v.1.15,2013-04-15 12:30:00,
2013-04-15 07:36:00,54.5,47.4,29.77,NE,38,3.0,4.0,77,0.00,,,0.00,Wunderground v.1.15,2013-04-15 12:36:00,
2013-04-15 07:46:00,54.7,47.6,29.77,NE,36,3.0,3.0,77,0.00,,,0.00,Wunderground v.1.15,2013-04-15 12:46:00,
2013-04-15 07:55:00,54.7,48.0,29.77,NNE,32,3.0,4.0,78,0.00,,,0.00,Wunderground v.1.15,2013-04-15 12:55:00,
2013-04-15 08:01:00,54.8,47.7,29.77,NNE,14,3.0,3.0,77,0.00,,,0.00,Wunderground v.1.15,2013-04-15 13:01:00,
2013-04-15 08:10:00,55.0,48.3,29.77,North,360,3.0,3.0,78,0.00,,,0.00,Wunderground v.1.15,2013-04-15 13:10:00,
2013-04-15 08:20:00,55.1,48.4,29.77,NE,40,4.0,4.0,78,0.00,,,0.00,Wunderground v.1.15,2013-04-15 13:20:00,
2013-04-15 08:26:00,55.1,48.4,29.77,NE,38,3.0,4.0,78,0.00,,,0.00,Wunderground v.1.15,2013-04-15 13:26:00,
2013-04-15 08:36:00,55.3,48.9,29.77,NE,37,2.0,3.0,79,0.00,,,0.00,Wunderground v.1.15,2013-04-15 13:36:00,
2013-04-15 08:45:00,55.3,49.2,29.77,NE,40,4.0,4.0,80,0.00,,,0.00,Wunderground v.1.15,2013-04-15 13:45:00,
2013-04-15 08:51:00,55.3,49.2,29.77,NE,52,3.0,3.0,80,0.00,,,0.00,Wunderground v.1.15,2013-04-15 13:51:00,
2013-04-15 09:00:00,55.4,49.7,29.77,NE,36,2.0,2.0,81,0.00,,,0.00,Wunderground v.1.15,2013-04-15 14:00:00,
2013-04-15 09:06:00,55.4,50.0,29.77,ESE,103,2.0,2.0,82,0.00,,,0.00,Wunderground v.1.15,2013-04-15 14:06:00,
2013-04-15 09:16:00,55.6,50.2,29.77,ENE,70,2.0,3.0,82,0.00,,,0.00,Wunderground v.1.15,2013-04-15 14:16:00,
2013-04-15 09:25:00,55.7,50.6,29.77,NE,45,2.0,4.0,83,0.00,,,0.00,Wunderground v.1.15,2013-04-15 14:25:00,
2013-04-15 09:31:00,55.7,50.9,29.77,ENE,57,2.0,2.0,84,0.00,,,0.00,Wunderground v.1.15,2013-04-15 14:31:00,
2013-04-15 09:41:00,55.7,50.9,29.77,NE,42,2.0,2.0,84,0.00,,,0.00,Wunderground v.1.15,2013-04-15 14:41:00,
2013-04-15 09:50:00,56.0,51.6,29.76,NE,34,2.0,4.0,85,0.00,,,0.00,Wunderground v.1.15,2013-04-15 14:50:00,
2013-04-15 09:56:00,56.3,51.8,29.76,NE,51,3.0,4.0,85,0.00,,,0.00,Wunderground v.1.15,2013-04-15 14:56:00,
2013-04-15 10:06:00,56.6,52.1,29.76,East,81,3.0,3.0,85,0.00,,,0.00,Wunderground v.1.15,2013-04-15 15:06:00,
2013-04-15 10:15:00,57.0,52.9,29.76,ENE,74,2.0,3.0,86,0.00,,,0.00,Wunderground v.1.15,2013-04-15 15:15:00,
2013-04-15 10:21:00,57.2,53.0,29.76,East,82,3.0,3.0,86,0.00,,,0.00,Wunderground v.1.15,2013-04-15 15:21:00,
2013-04-15 10:30:00,57.5,53.3,29.76,ENE,58,2.0,4.0,86,0.00,,,0.00,Wunderground v.1.15,2013-04-15 15:30:00,
2013-04-15 10:36:00,57.8,53.6,29.76,NE,53,2.0,4.0,86,0.00,,,0.00,Wunderground v.1.15,2013-04-15 15:36:00,
2013-04-15 10:46:00,58.1,53.6,29.75,ESE,121,2.0,3.0,85,0.00,,,0.00,Wunderground v.1.15,2013-04-15 15:46:00,
2013-04-15 10:56:00,58.7,54.2,29.75,ENE,64,2.0,2.0,85,0.00,,,0.00,Wunderground v.1.15,2013-04-15 15:56:00,
2013-04-15 11:05:00,59.3,54.8,29.75,ENE,75,1.0,2.0,85,0.00,,,0.00,Wunderground v.1.15,2013-04-15 16:05:00,
2013-04-15 11:11:00,59.5,55.0,29.75,ENE,75,1.0,2.0,85,0.00,,,0.00,Wunderground v.1.15,2013-04-15 16:11:00,
2013-04-15 11:20:00,60.4,56.2,29.76,SE,136,1.0,1.0,86,0.00,,,0.00,Wunderground v.1.15,2013-04-15 16:20:00,
2013-04-15 11:26:00,61.0,56.8,29.76,SE,136,1.0,1.0,86,0.00,,,0.00,Wunderground v.1.15,2013-04-15 16:26:00,
2013-04-15 11:36:00,61.8,57.6,29.76,SE,134,1.0,1.0,86,0.00,,,0.00,Wunderground v.1.15,2013-04-15 16:36:00,
2013-04-15 11:46:00,62.3,58.1,29.76,East,96,2.0,2.0,86,0.00,,,0.00,Wunderground v.1.15,2013-04-15 16:46:00,
2013-04-15 11:55:00,62.9,59.0,29.76,SE,128,1.0,4.0,87,0.00,,,0.00,Wunderground v.1.15,2013-04-15 16:55:00,
2013-04-15 12:01:00,63.5,59.2,29.76,SE,133,1.0,1.0,86,0.00,,,0.00,Wunderground v.1.15,2013-04-15 17:01:00,
2013-04-15 12:11:00,64.3,59.4,29.76,NE,42,1.0,1.0,84,0.00,,,0.00,Wunderground v.1.15,2013-04-15 17:11:00,
2013-04-15 12:21:00,65.5,59.9,29.76,South,184,0.0,0.0,82,0.00,,,0.00,Wunderground v.1.15,2013-04-15 17:21:00,
2013-04-15 12:26:00,66.0,60.3,29.76,ENE,57,1.0,3.0,82,0.00,,,0.00,Wunderground v.1.15,2013-04-15 17:26:00,
2013-04-15 12:30:00,66.4,60.7,29.75,ENE,57,1.0,1.0,82,0.00,,,0.00,Wunderground v.1.15,2013-04-15 17:30:00,
2013-04-15 12:35:00,67.1,60.7,29.75,ENE,76,1.0,3.0,80,0.00,,,0.00,Wunderground v.1.15,2013-04-15 17:35:00,
2013-04-15 12:46:00,67.8,61.0,29.75,ENE,69,1.0,2.0,79,0.00,,,0.00,Wunderground v.1.15,2013-04-15 17:46:00,
2013-04-15 12:56:00,67.8,60.7,29.75,NE,55,1.0,1.0,78,0.00,,,0.00,Wunderground v.1.15,2013-04-15 17:56:00,
2013-04-15 13:05:00,68.1,61.3,29.75,NE,55,1.0,2.0,79,0.00,,,0.00,Wunderground v.1.15,2013-04-15 18:05:00,
2013-04-15 13:10:00,68.4,61.3,29.75,NE,55,1.0,2.0,78,0.00,,,0.00,Wunderground v.1.15,2013-04-15 18:10:00,
2013-04-15 13:21:00,68.9,61.0,29.74,ENE,59,2.0,3.0,76,0.00,,,0.00,Wunderground v.1.15,2013-04-15 18:21:00,
2013-04-15 13:31:00,69.9,62.4,29.73,NNE,32,2.0,2.0,77,0.00,,,0.00,Wunderground v.1.15,2013-04-15 18:31:00,
2013-04-15 13:35:00,70.3,62.4,29.73,ENE,72,2.0,2.0,76,0.00,,,0.00,Wunderground v.1.15,2013-04-15 18:35:00,
2013-04-15 13:41:00,70.4,62.1,29.73,NE,46,2.0,6.0,75,0.00,,,0.00,Wunderground v.1.15,2013-04-15 18:41:00,
2013-04-15 13:45:00,70.9,62.6,29.73,ENE,76,2.0,6.0,75,0.00,,,0.00,Wunderground v.1.15,2013-04-15 18:45:00,
2013-04-15 13:56:00,71.8,62.7,29.73,East,100,2.0,2.0,73,0.00,,,0.00,Wunderground v.1.15,2013-04-15 18:56:00,
2013-04-15 14:00:00,71.8,62.3,29.72,ENE,77,1.0,1.0,72,0.00,,,0.00,Wunderground v.1.15,2013-04-15 19:00:00,
2013-04-15 14:06:00,72.1,63.4,29.72,ESE,107,1.0,1.0,74,0.00,,,0.00,Wunderground v.1.15,2013-04-15 19:06:00,
2013-04-15 14:15:00,73.0,63.0,29.72,NE,38,2.0,4.0,71,0.00,,,0.00,Wunderground v.1.15,2013-04-15 19:15:00,
2013-04-15 14:21:00,72.7,62.3,29.72,NE,34,1.0,5.0,70,0.00,,,0.00,Wunderground v.1.15,2013-04-15 19:21:00,
2013-04-15 14:36:00,74.4,63.6,29.71,ENE,76,2.0,2.0,69,0.00,,,0.00,Wunderground v.1.15,2013-04-15 19:36:00,
2013-04-15 14:46:00,75.1,64.2,29.70,East,82,2.0,2.0,69,0.00,,,0.00,Wunderground v.1.15,2013-04-15 19:46:00,
2013-04-15 15:01:00,76.1,64.3,29.70,ENE,65,1.0,1.0,67,0.00,,,0.00,Wunderground v.1.15,2013-04-15 20:01:00,
2013-04-15 15:05:00,76.5,63.4,29.70,NE,53,1.0,1.0,64,0.00,,,0.00,Wunderground v.1.15,2013-04-15 20:05:00,
2013-04-15 15:11:00,76.8,62.8,29.70,SE,140,1.0,1.0,62,0.00,,,0.00,Wunderground v.1.15,2013-04-15 20:11:00,
2013-04-15 15:15:00,76.8,63.2,29.69,SE,131,0.0,2.0,63,0.00,,,0.00,Wunderground v.1.15,2013-04-15 20:15:00,
2013-04-15 15:26:00,77.0,64.3,29.69,South,184,1.0,1.0,65,0.00,,,0.00,Wunderground v.1.15,2013-04-15 20:26:00,
2013-04-15 15:30:00,77.2,61.3,29.68,SE,140,1.0,3.0,58,0.00,,,0.00,Wunderground v.1.15,2013-04-15 20:30:00,
2013-04-15 15:36:00,77.4,61.5,29.68,West,277,2.0,3.0,58,0.00,,,0.00,Wunderground v.1.15,2013-04-15 20:36:00,
2013-04-15 15:45:00,77.6,62.1,29.67,SE,145,1.0,5.0,59,0.00,,,0.00,Wunderground v.1.15,2013-04-15 20:45:00,
2013-04-15 15:56:00,79.4,61.3,29.67,SSW,192,3.0,3.0,54,0.00,,,0.00,Wunderground v.1.15,2013-04-15 20:56:00,
2013-04-15 16:05:00,79.2,61.6,29.67,SW,215,2.0,5.0,55,0.00,,,0.00,Wunderground v.1.15,2013-04-15 21:05:00,
2013-04-15 16:11:00,79.4,60.8,29.67,SW,217,3.0,3.0,53,0.00,,,0.00,Wunderground v.1.15,2013-04-15 21:11:00,
2013-04-15 16:21:00,80.3,61.1,29.67,East,85,4.0,4.0,52,0.00,,,0.00,Wunderground v.1.15,2013-04-15 21:21:00,
2013-04-15 16:30:00,80.5,60.7,29.67,South,185,2.0,7.0,51,0.00,,,0.00,Wunderground v.1.15,2013-04-15 21:30:00,
2013-04-15 16:36:00,80.3,60.5,29.67,WSW,237,2.0,3.0,51,0.00,,,0.00,Wunderground v.1.15,2013-04-15 21:36:00,
2013-04-15 16:46:00,78.8,60.7,29.67,SSW,211,3.0,3.0,54,0.00,,,0.00,Wunderground v.1.15,2013-04-15 21:46:00,
2013-04-15 16:56:00,78.5,59.9,29.67,SSW,198,1.0,3.0,53,0.00,,,0.00,Wunderground v.1.15,2013-04-15 21:56:00,
2013-04-15 17:05:00,78.1,61.1,29.67,SW,214,2.0,2.0,56,0.00,,,0.00,Wunderground v.1.15,2013-04-15 22:05:00,
2013-04-15 17:11:00,78.5,61.0,29.67,South,179,1.0,1.0,55,0.00,,,0.00,Wunderground v.1.15,2013-04-15 22:11:00,
2013-04-15 17:21:00,79.8,62.7,29.68,SSE,148,2.0,5.0,56,0.00,,,0.00,Wunderground v.1.15,2013-04-15 22:21:00,
2013-04-15 17:30:00,80.3,61.1,29.68,SSW,210,2.0,5.0,52,0.00,,,0.00,Wunderground v.1.15,2013-04-15 22:30:00,
2013-04-15 17:36:00,79.8,60.1,29.68,SW,224,3.0,4.0,51,0.00,,,0.00,Wunderground v.1.15,2013-04-15 22:36:00,
2013-04-15 17:46:00,79.4,61.3,29.68,SSW,209,2.0,4.0,54,0.00,,,0.00,Wunderground v.1.15,2013-04-15 22:46:00,
2013-04-15 17:56:00,79.4,60.2,29.68,WSW,237,3.0,3.0,52,0.00,,,0.00,Wunderground v.1.15,2013-04-15 22:56:00,
2013-04-15 18:05:00,78.3,60.8,29.68,SSW,209,2.0,3.0,55,0.00,,,0.00,Wunderground v.1.15,2013-04-15 23:05:00,
2013-04-15 18:11:00,77.7,60.2,29.68,South,181,1.0,1.0,55,0.00,,,0.00,Wunderground v.1.15,2013-04-15 23:11:00,
2013-04-15 18:20:00,77.4,61.0,29.68,South,183,2.0,2.0,57,0.00,,,0.00,Wunderground v.1.15,2013-04-15 23:20:00,
2013-04-15 18:25:00,76.8,61.9,29.68,South,183,1.0,2.0,60,0.00,,,0.00,Wunderground v.1.15,2013-04-15 23:25:00,
2013-04-15 18:31:00,76.0,62.0,29.69,South,183,0.0,0.0,62,0.00,,,0.00,Wunderground v.1.15,2013-04-15 23:31:00,
2013-04-15 18:41:00,74.7,61.3,29.69,South,191,0.0,2.0,63,0.00,,,0.00,Wunderground v.1.15,2013-04-15 23:41:00,
2013-04-15 18:50:00,74.2,60.8,29.69,SSE,163,1.0,4.0,63,0.00,,,0.00,Wunderground v.1.15,2013-04-15 23:50:00,
2013-04-15 18:56:00,74.4,61.0,29.69,South,177,1.0,4.0,63,0.00,,,0.00,Wunderground v.1.15,2013-04-15 23:56:00,
2013-04-15 19:06:00,74.7,60.8,29.70,SSE,167,0.0,1.0,62,0.00,,,0.00,Wunderground v.1.15,2013-04-16 00:06:00,
2013-04-15 19:15:00,74.7,61.3,29.70,SE,138,1.0,1.0,63,0.00,,,0.00,Wunderground v.1.15,2013-04-16 00:15:00,
2013-04-15 19:21:00,74.2,60.8,29.70,SE,138,0.0,1.0,63,0.00,,,0.00,Wunderground v.1.15,2013-04-16 00:21:00,
2013-04-15 19:31:00,73.3,60.8,29.70,SSW,208,0.0,0.0,65,0.00,,,0.00,Wunderground v.1.15,2013-04-16 00:31:00,
2013-04-15 19:40:00,72.5,59.6,29.70,NNW,336,1.0,5.0,64,0.00,,,0.00,Wunderground v.1.15,2013-04-16 00:40:00,
2013-04-15 19:46:00,71.3,58.9,29.72,NNW,343,3.0,3.0,65,0.00,,,0.00,Wunderground v.1.15,2013-04-16 00:46:00,
2013-04-15 19:56:00,69.4,58.4,29.72,NNW,346,2.0,2.0,68,0.00,,,0.00,Wunderground v.1.15,2013-04-16 00:56:00,
2013-04-15 20:05:00,67.3,56.8,29.73,NE,42,3.0,3.0,69,0.00,,,0.00,Wunderground v.1.15,2013-04-16 01:05:00,
2013-04-15 20:11:00,66.4,56.7,29.73,NE,40,2.0,2.0,71,0.00,,,0.00,Wunderground v.1.15,2013-04-16 01:11:00,
2013-04-15 20:21:00,65.0,56.5,29.74,North,355,2.0,3.0,74,0.00,,,0.00,Wunderground v.1.15,2013-04-16 01:21:00,
2013-04-15 20:30:00,64.0,56.3,29.76,North,350,2.0,3.0,76,0.00,,,0.00,Wunderground v.1.15,2013-04-16 01:30:00,
2013-04-15 20:36:00,63.7,56.0,29.76,North,350,1.0,1.0,76,0.00,,,0.00,Wunderground v.1.15,2013-04-16 01:36:00,
2013-04-15 20:45:00,63.2,55.9,29.77,NNE,30,3.0,3.0,77,0.00,,,0.00,Wunderground v.1.15,2013-04-16 01:45:00,
2013-04-15 20:51:00,63.1,56.1,29.77,NNE,21,3.0,3.0,78,0.00,,,0.00,Wunderground v.1.15,2013-04-16 01:51:00,
2013-04-15 21:01:00,62.9,55.9,29.78,NNE,13,2.0,2.0,78,0.00,,,0.00,Wunderground v.1.15,2013-04-16 02:01:00,
2013-04-15 21:11:00,62.6,55.6,29.78,NNE,25,1.0,2.0,78,0.00,,,0.00,Wunderground v.1.15,2013-04-16 02:11:00,
2013-04-15 21:21:00,62.3,55.7,29.78,NNE,25,0.0,0.0,79,0.00,,,0.00,Wunderground v.1.15,2013-04-16 02:21:00,
2013-04-15 21:30:00,61.6,55.0,29.80,NNE,25,0.0,0.0,79,0.00,,,0.00,Wunderground v.1.15,2013-04-16 02:30:00,
2013-04-15 21:36:00,61.2,55.3,29.80,NNE,25,0.0,0.0,81,0.00,,,0.00,Wunderground v.1.15,2013-04-16 02:36:00,
2013-04-15 21:45:00,61.0,55.5,29.81,NNE,25,0.0,0.0,82,0.00,,,0.00,Wunderground v.1.15,2013-04-16 02:45:00,
2013-04-15 21:51:00,60.9,55.4,29.81,NNE,25,0.0,0.0,82,0.00,,,0.00,Wunderground v.1.15,2013-04-16 02:51:00,
2013-04-15 22:00:00,60.7,55.5,29.81,NNW,343,2.0,2.0,83,0.00,,,0.00,Wunderground v.1.15,2013-04-16 03:00:00,
2013-04-15 22:06:00,60.5,55.3,29.81,NNW,338,2.0,2.0,83,0.00,,,0.00,Wunderground v.1.15,2013-04-16 03:06:00,
2013-04-15 22:16:00,59.9,54.7,29.82,NNW,338,1.0,3.0,83,0.00,,,0.00,Wunderground v.1.15,2013-04-16 03:16:00,
2013-04-15 22:26:00,59.3,54.1,29.82,NNW,338,1.0,2.0,83,0.00,,,0.00,Wunderground v.1.15,2013-04-16 03:26:00,
2013-04-15 22:35:00,58.6,53.5,29.83,NNW,347,3.0,4.0,83,0.00,,,0.00,Wunderground v.1.15,2013-04-16 03:35:00,
2013-04-15 22:41:00,58.3,53.2,29.83,NNW,347,3.0,3.0,83,0.00,,,0.00,Wunderground v.1.15,2013-04-16 03:41:00,
2013-04-15 22:51:00,57.6,52.8,29.83,NNW,346,3.0,3.0,84,0.00,,,0.00,Wunderground v.1.15,2013-04-16 03:51:00,
2013-04-15 23:00:00,57.0,52.2,29.84,NNW,334,3.0,4.0,84,0.00,,,0.00,Wunderground v.1.15,2013-04-16 04:00:00,
2013-04-15 23:06:00,56.5,51.7,29.84,North,355,4.0,4.0,84,0.00,,,0.00,Wunderground v.1.15,2013-04-16 04:06:00,
2013-04-15 23:10:00,55.9,51.1,29.84,NNW,344,5.0,5.0,84,0.00,,,0.00,Wunderground v.1.15,2013-04-16 04:10:00,
2013-04-15 23:21:00,55.1,51.0,29.83,North,355,4.0,4.0,86,0.00,,,0.00,Wunderground v.1.15,2013-04-16 04:21:00,
2013-04-15 23:31:00,54.7,50.9,29.83,North,360,3.0,3.0,87,0.00,,,0.00,Wunderground v.1.15,2013-04-16 04:31:00,
2013-04-15 23:36:00,54.4,50.9,29.83,North,355,4.0,4.0,88,0.00,,,0.00,Wunderground v.1.15,2013-04-16 04:36:00,
2013-04-15 23:46:00,54.2,51.0,29.85,NNW,344,5.0,11.0,89,0.00,,,0.00,Wunderground v.1.15,2013-04-16 04:46:00,
2013-04-15 23:50:00,54.1,50.9,29.85,NNW,346,6.0,9.0,89,0.00,,,0.00,Wunderground v.1.15,2013-04-16 04:50:00,
2013-04-15 23:56:00,54.1,51.2,29.85,North,355,5.0,9.0,90,0.00,,,0.00,Wunderground v.1.15,2013-04-16 04:56:00,